Time;durP1;ratioP1;P1;durP2;ratioP2;P2;SDS_P1;SDS_P2;PMS_P1;PMS_P2;Temp;Humidity;BMP_temperature;BMP_pressure;BME280_temperature;BME280_humidity;BME280_pressure;Samples;Min_cycle;Max_cycle;Signal;HPM_P1;HPM_P2
2023/02/20 00:01:21;;;;;;;4.20;2.20;;;;;;;16.73;65.39;102482.34;6226081;22;20007;-84
2023/02/20 00:03:47;;;;;;;3.53;1.80;;;;;;;16.72;64.71;102480.56;6278770;22;20384;-85
2023/02/20 00:06:12;;;;;;;5.95;2.05;;;;;;;16.74;65.34;102480.59;6225926;22;20065;-84
2023/02/20 00:08:38;;;;;;;3.85;1.73;;;;;;;16.74;65.17;102478.88;6251443;22;20035;-85
2023/02/20 00:11:03;;;;;;;5.05;2.35;;;;;;;16.73;65.44;102471.94;6200935;22;20384;-85
2023/02/20 00:13:29;;;;;;;5.05;2.00;;;;;;;16.74;64.99;102470.19;6226003;22;20011;-85
2023/02/20 00:15:54;;;;;;;5.93;1.90;;;;;;;16.74;65.34;102472.81;6251479;22;20007;-85
2023/02/20 00:18:19;;;;;;;2.10;1.50;;;;;;;16.72;65.35;102462.38;6226090;22;20064;-85
2023/02/20 00:20:45;;;;;;;3.70;1.60;;;;;;;16.73;65.48;102468.47;6225972;22;20074;-83
2023/02/20 00:23:10;;;;;;;5.07;2.05;;;;;;;16.72;65.00;102462.38;6225564;22;20432;-85
2023/02/20 00:25:36;;;;;;;4.53;1.98;;;;;;;16.72;65.16;102459.75;6200769;22;20132;-85
2023/02/20 00:28:01;;;;;;;3.10;1.70;;;;;;;16.73;65.09;102460.66;6251297;22;20023;-84
2023/02/20 00:30:27;;;;;;;3.25;1.90;;;;;;;16.73;64.98;102466.75;6228065;22;20029;-84
2023/02/20 00:32:54;;;;;;;4.10;1.83;;;;;;;16.73;65.27;102455.47;6259098;22;20504;-84
2023/02/20 00:35:20;;;;;;;4.15;1.70;;;;;;;16.71;64.98;102452.81;6262262;22;20142;-83
2023/02/20 00:37:47;;;;;;;3.08;1.75;;;;;;;16.72;64.85;102458.91;6262628;22;20371;-84
2023/02/20 00:40:13;;;;;;;3.20;1.80;;;;;;;16.71;65.06;102452.81;6285929;22;19992;-85
2023/02/20 00:42:39;;;;;;;5.90;2.03;;;;;;;16.71;64.71;102450.22;6253988;22;20325;-85
2023/02/20 00:45:05;;;;;;;3.42;1.70;;;;;;;16.71;65.03;102444.16;6252451;22;20008;-85
2023/02/20 00:47:31;;;;;;;5.03;1.45;;;;;;;16.69;65.14;102428.53;6227158;22;20014;-83
2023/02/20 00:49:56;;;;;;;2.90;1.75;;;;;;;16.70;65.60;102419.00;6251508;22;20035;-85
2023/02/20 00:52:22;;;;;;;3.42;1.70;;;;;;;16.70;65.19;102417.31;6250651;22;20099;-81
2023/02/20 00:54:48;;;;;;;2.95;1.60;;;;;;;16.70;64.52;102416.41;6251572;22;20011;-84
2023/02/20 00:57:14;;;;;;;3.78;1.38;;;;;;;16.68;64.69;102406.00;6225833;22;20014;-85
2023/02/20 00:59:39;;;;;;;3.75;1.63;;;;;;;16.69;64.27;102399.94;6250972;22;20107;-83
2023/02/20 01:02:05;;;;;;;4.90;1.80;;;;;;;16.70;64.77;102388.69;6225400;22;20004;-80
2023/02/20 01:04:30;;;;;;;3.13;1.67;;;;;;;16.69;64.77;102371.34;6251445;22;20004;-85
2023/02/20 01:06:55;;;;;;;3.83;1.73;;;;;;;16.68;64.80;102377.41;6225336;22;20090;-85
2023/02/20 01:09:21;;;;;;;4.88;1.70;;;;;;;16.67;64.85;102367.84;6225664;22;20014;-81
2023/02/20 01:11:46;;;;;;;2.92;1.58;;;;;;;16.67;64.53;102365.22;6225488;22;20428;-82
2023/02/20 01:14:13;;;;;;;4.47;1.33;;;;;;;16.67;64.88;102370.44;6225650;22;20042;-84
2023/02/20 01:16:47;;;;;;;3.80;1.58;;;;;;;16.66;64.63;102366.97;6250288;22;20038;-81
2023/02/20 01:19:12;;;;;;;4.68;1.67;;;;;;;16.66;64.05;102369.56;6250358;22;20007;-80
2023/02/20 01:21:38;;;;;;;4.20;1.50;;;;;;;16.67;64.92;102360.91;6250353;22;20000;-83
2023/02/20 01:24:03;;;;;;;4.28;1.60;;;;;;;16.66;65.06;102353.09;6250544;22;20027;-85
2023/02/20 01:26:29;;;;;;;3.60;1.52;;;;;;;16.66;64.67;102346.16;6225458;22;20090;-85
2023/02/20 01:28:54;;;;;;;4.05;1.50;;;;;;;16.66;64.56;102340.97;6225401;22;20007;-81
2023/02/20 01:31:20;;;;;;;2.63;1.27;;;;;;;16.66;63.80;102335.78;6225065;22;20484;-82
2023/02/20 01:33:45;;;;;;;3.88;1.30;;;;;;;16.65;64.49;102340.94;6250553;22;20004;-83
2023/02/20 01:36:11;;;;;;;4.00;1.77;;;;;;;16.65;64.49;102346.13;6200258;22;20010;-82
2023/02/20 01:38:39;;;;;;;3.88;1.60;;;;;;;16.65;64.56;102347.00;6225255;22;20004;-83
2023/02/20 01:41:06;;;;;;;2.85;1.45;;;;;;;16.64;64.05;102336.59;6250204;22;20006;-80
2023/02/20 01:43:31;;;;;;;4.50;1.52;;;;;;;16.63;64.00;102338.28;6225217;22;20039;-83
2023/02/20 01:46:25;;;;;;;4.28;1.70;;;;;;;16.65;64.38;102338.34;6225153;22;20050;-83
2023/02/20 01:49:03;;;;;;;4.30;1.73;;;;;;;16.63;63.89;102335.69;6250421;22;20390;-82
2023/02/20 01:51:34;;;;;;;4.72;1.77;;;;;;;16.64;64.43;102328.81;6277291;22;20266;-84
2023/02/20 01:54:00;;;;;;;4.28;1.70;;;;;;;16.64;64.17;102319.28;6277290;22;20429;-82
2023/02/20 01:56:26;;;;;;;3.92;1.50;;;;;;;16.62;63.75;102317.50;6250387;22;20413;-81
2023/02/20 01:58:53;;;;;;;4.00;1.58;;;;;;;16.64;64.04;102321.00;6250217;22;20007;-81
2023/02/20 02:01:18;;;;;;;3.58;1.40;;;;;;;16.63;63.39;102311.44;6224868;22;20012;-80
2023/02/20 02:03:48;;;;;;;4.53;1.75;;;;;;;16.63;63.84;102316.63;6250358;22;20420;-84
2023/02/20 02:06:15;;;;;;;5.05;1.90;;;;;;;16.63;63.59;102325.31;6277247;22;20027;-81
2023/02/20 02:08:43;;;;;;;3.42;1.65;;;;;;;16.64;63.54;102331.41;6224641;22;20004;-82
2023/02/20 02:11:12;;;;;;;3.63;1.48;;;;;;;16.63;63.89;102330.50;6250098;22;20031;-80
2023/02/20 02:13:39;;;;;;;4.88;1.75;;;;;;;16.62;64.03;102325.28;6250908;22;20000;-81
2023/02/20 02:16:35;;;;;;;2.83;1.30;;;;;;;16.62;64.01;102310.56;6227077;22;20077;-84
2023/02/20 02:19:28;;;;;;;3.35;1.67;;;;;;;16.62;63.39;102312.31;6252040;22;20000;-82
2023/02/20 02:22:03;;;;;;;4.77;1.50;;;;;;;16.62;63.48;102326.16;6252013;22;20004;-84
2023/02/20 02:25:16;;;;;;;3.58;1.55;;;;;;;16.62;63.62;102320.09;6252050;22;20156;-85
2023/02/20 02:28:18;;;;;;;3.97;1.40;;;;;;;16.62;63.39;102312.31;6279460;22;20046;-84
2023/02/20 02:30:52;;;;;;;4.97;1.67;;;;;;;16.61;63.14;102305.34;6251827;22;20375;-83
2023/02/20 02:33:21;;;;;;;4.22;1.60;;;;;;;16.62;63.72;102313.16;6252232;22;20007;-83
2023/02/20 02:36:14;;;;;;;5.13;1.60;;;;;;;16.60;63.41;102320.06;6251899;22;20086;-85
2023/02/20 02:39:02;;;;;;;3.25;1.52;;;;;;;16.61;63.41;102311.44;6251991;22;20089;-81
2023/02/20 02:41:59;;;;;;;3.58;1.50;;;;;;;16.61;63.75;102305.34;6252099;22;20309;-82
2023/02/20 02:45:23;;;;;;;3.58;1.50;;;;;;;16.62;63.42;102299.31;6251875;22;20030;-85
2023/02/20 02:48:15;;;;;;;3.83;1.50;;;;;;;16.61;63.39;102288.03;6131401;23;20037;-86
2023/02/20 02:50:44;;;;;;;4.80;1.60;;;;;;;16.61;62.98;102287.16;6242608;22;20321;-85
2023/02/20 02:53:12;;;;;;;3.33;1.50;;;;;;;16.61;63.02;102284.53;6226645;22;20478;-86
2023/02/20 02:55:40;;;;;;;3.92;1.77;;;;;;;16.60;63.18;102288.00;6279212;22;20306;-84
2023/02/20 02:58:06;;;;;;;4.25;1.65;;;;;;;16.60;63.48;102291.47;6226932;22;20012;-86
2023/02/20 03:00:40;;;;;;;4.00;1.60;;;;;;;16.60;63.22;102278.47;6227222;22;20011;-84
2023/02/20 03:03:18;;;;;;;5.43;1.90;;;;;;;16.58;62.88;102277.56;6252311;22;20053;-86
2023/02/20 03:05:47;;;;;;;4.80;1.63;;;;;;;16.58;62.69;102285.38;6251909;22;20007;-84
2023/02/20 03:08:30;;;;;;;3.60;1.58;;;;;;;16.59;62.86;102278.44;6252071;22;20033;-84
2023/02/20 03:11:03;;;;;;;3.07;1.40;;;;;;;16.59;62.69;102275.84;6278744;22;20324;-83
2023/02/20 03:16:21;;;;;;;5.45;1.98;;;;;;;16.60;63.18;102281.06;6279315;22;20014;-86
2023/02/20 03:18:49;;;;;;;5.05;1.52;;;;;;;16.60;63.10;102275.00;6252342;22;20009;-85
2023/02/20 03:21:19;;;;;;;4.85;1.70;;;;;;;16.58;63.67;102266.31;6251332;22;20534;-84
2023/02/20 03:23:52;;;;;;;3.88;1.30;;;;;;;16.58;63.23;102255.91;6251179;22;20087;-83
2023/02/20 03:26:21;;;;;;;3.97;1.60;;;;;;;16.57;63.63;102254.16;6283516;22;20015;-85
2023/02/20 03:28:57;;;;;;;4.43;1.63;;;;;;;16.57;62.95;102248.94;6289609;22;20046;-85
2023/02/20 03:31:30;;;;;;;4.93;1.60;;;;;;;16.58;63.44;102251.59;6293517;22;20417;-83
2023/02/20 03:45:23;;;;;;;3.60;1.52;;;;;;;16.56;62.80;102249.81;6280341;22;20011;-85
2023/02/20 03:47:53;;;;;;;6.07;1.52;;;;;;;16.58;63.08;102251.59;6253052;22;20008;-83
2023/02/20 03:50:19;;;;;;;4.90;1.73;;;;;;;16.57;62.83;102248.94;6253068;22;20065;-84
2023/02/20 03:52:45;;;;;;;3.47;1.50;;;;;;;16.58;63.04;102246.38;6201826;22;20019;-85
2023/02/20 03:55:10;;;;;;;5.30;1.67;;;;;;;16.58;62.96;102251.59;6201693;22;20098;-84
2023/02/20 03:57:41;;;;;;;4.50;1.58;;;;;;;16.56;62.15;102242.88;6251978;22;20053;-84
2023/02/20 04:00:17;;;;;;;3.90;1.50;;;;;;;16.56;62.97;102240.28;6279380;22;20019;-83
2023/02/20 04:02:46;;;;;;;4.47;1.50;;;;;;;16.56;62.10;102234.22;6279411;22;20004;-80
2023/02/20 04:05:17;;;;;;;3.60;1.55;;;;;;;16.56;62.93;102234.22;6279447;22;19999;-84
2023/02/20 04:07:55;;;;;;;4.32;1.63;;;;;;;16.58;62.85;102225.59;6251726;22;20000;-84
2023/02/20 04:10:30;;;;;;;4.90;1.60;;;;;;;16.58;63.17;102232.53;6251644;22;20054;-84
2023/02/20 04:12:57;;;;;;;5.13;1.90;;;;;;;16.59;62.43;102234.25;6278867;22;20421;-83
2023/02/20 04:15:24;;;;;;;4.22;1.67;;;;;;;16.59;62.57;102239.47;6278768;22;20420;-85
2023/02/20 04:17:54;;;;;;;4.47;1.85;;;;;;;16.61;63.35;102235.16;6251903;22;20383;-85
2023/02/20 04:20:20;;;;;;;5.80;1.50;;;;;;;16.61;63.34;102228.25;6256286;22;20011;-83
2023/02/20 04:22:48;;;;;;;3.83;1.52;;;;;;;16.60;63.28;102229.09;6231890;22;20073;-84
2023/02/20 04:25:37;;;;;;;3.90;1.60;;;;;;;16.61;63.57;102227.38;6283259;22;20421;-85
2023/02/20 04:28:04;;;;;;;3.97;1.77;;;;;;;16.62;63.45;102221.34;6255334;22;20004;-85
2023/02/20 04:30:29;;;;;;;5.03;1.83;;;;;;;16.63;63.31;102223.06;6255565;22;20053;-84
2023/02/20 04:32:55;;;;;;;4.22;1.58;;;;;;;16.64;63.28;102230.91;6255147;22;20012;-84
2023/02/20 04:35:20;;;;;;;3.60;1.55;;;;;;;16.64;63.44;102227.44;6229501;22;20437;-83
2023/02/20 04:37:46;;;;;;;3.67;1.80;;;;;;;16.65;63.12;102237.84;6230843;22;20014;-84
2023/02/20 04:40:14;;;;;;;5.38;1.67;;;;;;;16.66;63.46;102242.19;6231430;22;20010;-86
2023/02/20 04:42:40;;;;;;;3.38;1.70;;;;;;;16.69;63.21;102243.09;6256706;22;20000;-87
2023/02/20 04:45:05;;;;;;;3.92;1.48;;;;;;;16.67;63.45;102238.75;6230475;22;20011;-83
2023/02/20 04:47:31;;;;;;;4.00;1.60;;;;;;;16.69;63.61;102243.09;6226831;22;20012;-85
2023/02/20 04:49:57;;;;;;;3.58;1.52;;;;;;;16.68;63.49;102242.25;6201690;22;20026;-85
2023/02/20 04:52:23;;;;;;;3.65;1.58;;;;;;;16.70;62.83;102247.44;6252277;22;20046;-84
2023/02/20 04:54:49;;;;;;;4.97;1.90;;;;;;;16.68;63.21;102250.03;6227899;22;20050;-85
2023/02/20 04:57:15;;;;;;;4.25;1.58;;;;;;;16.67;63.14;102259.53;6227643;22;20012;-83
2023/02/20 04:59:41;;;;;;;3.30;1.40;;;;;;;16.65;63.14;102249.97;6253121;22;20035;-85
2023/02/20 05:02:06;;;;;;;4.50;1.65;;;;;;;16.64;62.56;102253.44;6228664;22;20003;-86
2023/02/20 05:04:31;;;;;;;4.45;1.90;;;;;;;16.64;62.46;102261.22;6230219;22;20007;-83
2023/02/20 05:06:57;;;;;;;4.65;1.60;;;;;;;16.64;62.65;102262.09;6253591;22;20015;-84
2023/02/20 05:09:23;;;;;;;4.07;1.67;;;;;;;16.66;62.84;102262.13;6252481;22;20078;-84
2023/02/20 05:11:49;;;;;;;4.05;1.65;;;;;;;16.66;63.00;102256.94;6279173;22;19999;-84
2023/02/20 05:14:14;;;;;;;3.97;1.40;;;;;;;16.66;62.77;102260.41;6226595;22;20485;-85
2023/02/20 05:16:41;;;;;;;3.33;1.67;;;;;;;16.67;62.60;102261.25;6252429;22;20091;-85
2023/02/20 05:19:07;;;;;;;3.85;1.60;;;;;;;16.70;62.80;102258.72;6226947;22;20000;-84
2023/02/20 05:24:19;;;;;;;3.78;1.60;;;;;;;16.69;62.67;102254.38;6279720;22;20017;-84
2023/02/20 05:26:44;;;;;;;2.53;1.13;;;;;;;16.71;62.83;102252.66;6279450;22;20011;-83
2023/02/20 05:29:11;;;;;;;6.03;1.52;;;;;;;16.71;62.81;102244.88;6227416;22;20008;-84
2023/02/20 05:31:38;;;;;;;1.88;1.02;;;;;;;16.71;62.25;102247.47;6253160;22;20003;-85
2023/02/20 05:34:03;;;;;;;3.08;1.63;;;;;;;16.73;62.37;102252.72;6203863;22;20011;-85
2023/02/20 05:36:29;;;;;;;3.20;1.40;;;;;;;16.73;62.68;102243.19;6281506;22;19999;-85
2023/02/20 05:38:55;;;;;;;3.35;1.40;;;;;;;16.73;62.37;102234.50;6254800;22;20034;-85
2023/02/20 05:41:20;;;;;;;4.05;1.42;;;;;;;16.74;62.22;102241.44;6229115;22;19996;-85
2023/02/20 05:43:47;;;;;;;3.70;1.58;;;;;;;16.74;62.68;102233.66;6229770;22;20057;-85
2023/02/20 05:46:13;;;;;;;5.22;1.48;;;;;;;16.74;62.07;102231.91;6254427;22;20035;-83
2023/02/20 05:48:38;;;;;;;3.03;1.30;;;;;;;16.74;62.52;102220.66;6227907;22;20004;-84
2023/02/20 05:51:04;;;;;;;3.42;1.50;;;;;;;16.75;62.44;102223.28;6228365;22;20011;-84
2023/02/20 05:53:32;;;;;;;7.93;1.65;;;;;;;16.74;62.35;102218.03;6227718;22;20050;-84
2023/02/20 05:55:58;;;;;;;4.68;1.45;;;;;;;16.69;62.20;102214.50;6253338;22;20031;-91
2023/02/20 05:58:24;;;;;;;6.43;1.50;;;;;;;16.65;62.33;102222.25;6202831;22;20008;-84
2023/02/20 06:00:50;;;;;;;5.03;1.20;;;;;;;16.63;61.58;102229.13;6226924;22;20334;-85
2023/02/20 06:03:17;;;;;;;3.20;1.50;;;;;;;16.63;61.36;102221.34;6226337;22;20003;-83
2023/02/20 06:05:43;;;;;;;3.88;1.40;;;;;;;16.64;61.81;102223.09;6252310;22;20390;-84
2023/02/20 06:08:08;;;;;;;6.60;1.30;;;;;;;16.64;62.09;102224.84;6251718;22;20007;-86
2023/02/20 06:10:34;;;;;;;4.53;1.38;;;;;;;16.64;61.52;102223.09;6251431;22;20392;-83
2023/02/20 06:12:59;;;;;;;4.63;1.73;;;;;;;16.65;61.34;102226.56;6251703;22;20078;-83
2023/02/20 06:15:25;;;;;;;4.43;1.63;;;;;;;16.65;61.61;102242.16;6252172;22;20004;-84
2023/02/20 06:17:54;;;;;;;3.58;1.45;;;;;;;16.65;61.50;102224.84;6251986;22;20010;-84
2023/02/20 06:20:19;;;;;;;3.83;1.48;;;;;;;16.66;61.29;102231.81;6201578;22;20103;-81
2023/02/20 06:22:47;;;;;;;3.35;1.40;;;;;;;16.66;61.58;102234.41;6225068;22;20004;-80
2023/02/20 06:25:12;;;;;;;2.95;1.50;;;;;;;16.67;61.26;102236.13;6226751;22;20091;-82
2023/02/20 06:27:38;;;;;;;3.92;1.25;;;;;;;16.67;61.32;102243.94;6208705;22;20314;-84
2023/02/20 06:30:04;;;;;;;3.25;1.23;;;;;;;16.66;61.60;102234.41;6234782;22;20012;-84
2023/02/20 06:32:32;;;;;;;5.68;1.58;;;;;;;16.66;61.60;102231.81;6240965;22;20003;-88
2023/02/20 06:34:57;;;;;;;9.07;3.20;;;;;;;16.67;61.63;102230.94;6270902;22;20004;-86
2023/02/20 06:37:22;;;;;;;10.35;3.10;;;;;;;16.69;61.26;102230.97;6211796;22;20069;-84
2023/02/20 06:39:48;;;;;;;11.32;2.80;;;;;;;16.69;61.23;102228.38;6203013;22;20094;-81
2023/02/20 06:42:14;;;;;;;13.60;2.67;;;;;;;16.70;61.28;102231.84;6276406;22;20008;-83
2023/02/20 06:44:40;;;;;;;7.22;2.75;;;;;;;16.69;61.23;102230.97;6224691;22;20378;-82
2023/02/20 06:47:07;;;;;;;9.63;2.70;;;;;;;16.69;61.26;102223.19;6225790;22;20008;-81
2023/02/20 06:49:37;;;;;;;8.98;2.80;;;;;;;16.70;61.24;102222.34;6200862;22;20018;-82
2023/02/20 06:52:03;;;;;;;7.35;3.00;;;;;;;16.84;61.28;102227.78;6225884;22;20003;-82
2023/02/20 06:54:28;;;;;;;7.03;2.70;;;;;;;16.97;61.11;102216.72;6278450;22;20016;-79
2023/02/20 06:56:55;;;;;;;6.78;2.83;;;;;;;17.04;60.97;102215.09;6225772;22;20003;-81
2023/02/20 06:59:21;;;;;;;6.18;2.35;;;;;;;17.09;60.67;102217.75;6201185;22;20054;-81
2023/02/20 07:01:46;;;;;;;8.55;2.63;;;;;;;17.12;60.37;102215.22;6252443;22;20416;-84
2023/02/20 07:04:21;;;;;;;7.05;2.42;;;;;;;17.14;60.42;102210.91;6226918;22;20102;-82
2023/02/20 07:06:46;;;;;;;7.35;2.38;;;;;;;17.15;60.00;102221.31;6251701;22;20016;-82
2023/02/20 07:09:13;;;;;;;9.02;2.75;;;;;;;17.16;60.15;102217.88;6226140;22;20432;-79
2023/02/20 07:11:39;;;;;;;7.78;2.85;;;;;;;17.18;60.33;102228.28;6251705;22;20328;-83
2023/02/20 07:14:05;;;;;;;6.60;2.75;;;;;;;17.15;60.08;102225.66;6226662;22;20475;-86
2023/02/20 07:16:31;;;;;;;6.00;2.55;;;;;;;17.16;60.10;102242.97;6251501;22;20038;-84
2023/02/20 07:18:56;;;;;;;9.65;2.45;;;;;;;17.15;60.12;102236.91;6251918;22;20095;-83
2023/02/20 07:21:22;;;;;;;7.18;2.60;;;;;;;17.16;60.20;102246.47;6252059;22;20027;-84
2023/02/20 07:23:48;;;;;;;8.95;2.42;;;;;;;17.17;60.04;102239.53;6278924;22;20010;-84
2023/02/20 07:26:31;;;;;;;7.85;2.83;;;;;;;17.18;59.86;102249.97;6226888;22;20031;-84
2023/02/20 07:28:59;;;;;;;5.95;2.47;;;;;;;17.18;59.94;102239.56;6279076;22;20007;-83
2023/02/20 07:31:25;;;;;;;6.43;2.42;;;;;;;17.18;60.13;102241.28;6226925;22;20095;-84
2023/02/20 07:33:51;;;;;;;6.00;2.42;;;;;;;17.19;59.82;102246.50;6252285;22;20019;-84
2023/02/20 07:36:19;;;;;;;4.47;2.10;;;;;;;17.21;59.80;102238.75;6252110;22;19999;-83
2023/02/20 07:38:56;;;;;;;5.85;2.40;;;;;;;17.20;59.82;102244.78;6252741;22;20007;-84
2023/02/20 07:41:23;;;;;;;6.53;2.38;;;;;;;17.20;59.81;102248.28;6252188;22;19996;-84
2023/02/20 07:43:49;;;;;;;5.82;2.35;;;;;;;17.21;59.89;102251.75;6251955;22;20365;-83
2023/02/20 07:46:14;;;;;;;5.15;2.20;;;;;;;17.21;59.78;102241.34;6201538;22;20091;-84
2023/02/20 07:48:39;;;;;;;6.38;2.33;;;;;;;17.22;59.62;102240.47;6201438;22;20012;-81
2023/02/20 07:51:05;;;;;;;6.45;2.50;;;;;;;17.24;59.77;102239.63;6226033;22;20433;-83
2023/02/20 07:53:30;;;;;;;5.13;2.10;;;;;;;17.25;59.53;102235.34;6201062;22;20027;-80
2023/02/20 07:55:57;;;;;;;5.10;2.10;;;;;;;17.24;59.63;102238.78;6251515;22;20038;-82
2023/02/20 07:58:22;;;;;;;3.80;1.90;;;;;;;17.26;59.50;102252.69;6226526;22;20061;-81
2023/02/20 08:00:52;;;;;;;4.57;2.00;;;;;;;17.27;59.51;102250.09;6278656;22;20425;-80
2023/02/20 08:03:18;;;;;;;4.97;2.25;;;;;;;17.28;59.51;102245.78;6202126;22;20007;-84
2023/02/20 08:05:44;;;;;;;4.97;2.13;;;;;;;17.28;59.42;102251.84;6278693;22;20003;-84
2023/02/20 08:08:09;;;;;;;5.28;2.28;;;;;;;17.31;59.29;102245.84;6251416;22;20087;-81
2023/02/20 08:10:35;;;;;;;5.32;2.33;;;;;;;17.31;59.08;102252.75;6250847;22;19996;-83
2023/02/20 08:13:01;;;;;;;5.65;2.10;;;;;;;17.32;59.26;102249.31;6251007;22;20010;-84
2023/02/20 08:15:27;;;;;;;6.43;2.33;;;;;;;17.33;59.38;102254.50;6254666;22;20008;-83
2023/02/20 08:17:52;;;;;;;4.88;2.33;;;;;;;17.33;59.23;102257.09;6201810;22;20368;-84
2023/02/20 08:20:20;;;;;;;3.50;1.73;;;;;;;17.34;58.87;102251.06;6226299;22;20008;-84
2023/02/20 08:22:48;;;;;;;6.55;2.00;;;;;;;17.36;59.03;102251.97;6278258;22;20075;-84
2023/02/20 08:25:14;;;;;;;5.45;2.30;;;;;;;17.37;59.04;102245.03;6226059;22;20019;-85
2023/02/20 08:27:47;;;;;;;3.42;1.60;;;;;;;17.35;59.17;102250.19;6251246;22;20014;-84
2023/02/20 08:30:17;;;;;;;4.25;2.10;;;;;;;17.36;58.93;102238.09;6251524;22;20004;-85
2023/02/20 08:32:42;;;;;;;5.97;2.05;;;;;;;17.36;58.73;102227.69;6278289;22;20000;-86
2023/02/20 08:35:08;;;;;;;3.72;1.65;;;;;;;17.38;58.76;102218.16;6226131;22;20012;-83
2023/02/20 08:37:33;;;;;;;3.10;1.80;;;;;;;17.39;59.00;102223.38;6225854;22;20043;-82
2023/02/20 08:39:59;;;;;;;4.55;1.80;;;;;;;17.39;58.63;102225.97;6226055;22;20000;-82
2023/02/20 08:42:24;;;;;;;4.70;2.08;;;;;;;17.40;58.98;102217.34;6226857;22;20011;-83
2023/02/20 08:44:50;;;;;;;5.45;1.90;;;;;;;17.42;58.74;102227.72;6225996;22;20336;-82
2023/02/20 08:47:19;;;;;;;3.75;1.63;;;;;;;17.41;58.47;102224.25;6225840;22;20103;-81
2023/02/20 08:49:47;;;;;;;3.95;1.70;;;;;;;17.42;58.57;102222.53;6250947;22;20008;-82
2023/02/20 08:52:12;;;;;;;4.65;1.95;;;;;;;17.43;58.55;102209.56;6277580;22;20008;-83
2023/02/20 08:54:38;;;;;;;4.28;1.73;;;;;;;17.44;58.49;102224.31;6250587;22;20427;-82
2023/02/20 08:57:03;;;;;;;4.15;1.67;;;;;;;17.44;58.61;102216.53;6225698;22;20043;-82
2023/02/20 08:59:31;;;;;;;5.70;1.77;;;;;;;17.43;58.59;102219.97;6225783;22;20008;-80
2023/02/20 09:01:56;;;;;;;3.45;1.98;;;;;;;17.43;58.40;102196.53;6278338;22;19992;-80
2023/02/20 09:04:22;;;;;;;3.00;1.70;;;;;;;17.45;58.55;102207.84;6200738;22;20004;-82
2023/02/20 09:06:48;;;;;;;3.63;1.50;;;;;;;17.45;58.60;102214.78;6201322;22;20064;-83
2023/02/20 09:09:13;;;;;;;3.80;1.48;;;;;;;17.45;58.53;102214.78;6251224;22;20004;-85
2023/02/20 09:11:38;;;;;;;3.88;1.83;;;;;;;17.46;58.77;102217.41;6277835;22;20328;-83
2023/02/20 09:14:04;;;;;;;4.13;1.60;;;;;;;17.45;58.61;102223.47;6200702;22;20011;-82
2023/02/20 09:16:30;;;;;;;4.05;1.70;;;;;;;17.46;58.52;102226.94;6200492;22;20023;-82
2023/02/20 09:18:56;;;;;;;3.70;1.45;;;;;;;17.47;58.33;102229.56;6225922;22;20323;-82
2023/02/20 09:21:21;;;;;;;4.47;1.80;;;;;;;17.47;58.26;102226.09;6251175;22;20064;-85
2023/02/20 09:23:47;;;;;;;4.18;1.70;;;;;;;17.48;58.17;102222.63;6284435;22;20010;-81
2023/02/20 09:26:12;;;;;;;3.78;1.60;;;;;;;17.48;58.26;102241.72;6291448;22;20063;-82
2023/02/20 09:28:39;;;;;;;3.05;1.50;;;;;;;17.51;58.12;102221.78;6263932;22;20018;-79
2023/02/20 09:31:05;;;;;;;3.65;1.70;;;;;;;17.54;58.25;102229.63;6292197;22;20063;-82
2023/02/20 09:33:30;;;;;;;3.00;1.60;;;;;;;17.54;57.93;102232.25;6232057;22;20008;-83
2023/02/20 09:35:55;;;;;;;2.20;1.30;;;;;;;17.54;58.07;102232.25;6202677;22;20057;-83
2023/02/20 09:38:25;;;;;;;4.15;1.52;;;;;;;17.53;58.24;102222.66;6227571;22;20012;-81
2023/02/20 09:40:54;;;;;;;2.90;1.45;;;;;;;17.54;58.07;102230.50;6252418;22;20003;-83
2023/02/20 09:43:36;;;;;;;3.25;1.50;;;;;;;17.55;58.03;102223.56;6253535;22;20007;-88
2023/02/20 09:46:08;;;;;;;3.95;1.63;;;;;;;17.58;58.01;102231.44;6253110;22;20511;-88
2023/02/20 09:49:12;;;;;;;2.42;1.45;;;;;;;17.60;57.78;102227.13;6253263;22;20042;-88
2023/02/20 09:51:51;;;;;;;2.42;1.38;;;;;;;17.61;57.93;102231.47;6252751;22;20321;-89
2023/02/20 09:54:30;;;;;;;4.40;1.70;;;;;;;17.60;57.58;102225.38;6252345;22;20054;-88
2023/02/20 09:57:00;;;;;;;2.30;1.30;;;;;;;17.63;57.75;102247.97;6252542;22;20053;-89
2023/02/20 09:59:40;;;;;;;2.47;1.35;;;;;;;17.63;57.58;102243.63;6253489;22;20061;-87
2023/02/20 10:02:14;;;;;;;2.90;1.45;;;;;;;17.63;57.69;102228.00;6252592;22;20011;-89
2023/02/20 10:04:43;;;;;;;2.30;1.13;;;;;;;17.63;57.69;102214.13;6252751;22;20008;-88
2023/02/20 10:07:31;;;;;;;3.05;1.30;;;;;;;17.64;57.80;102221.09;6279606;22;19999;-88
2023/02/20 10:09:58;;;;;;;3.35;1.40;;;;;;;17.65;57.40;102225.44;6251889;22;19999;-88
2023/02/20 10:12:56;;;;;;;3.63;1.52;;;;;;;17.68;57.37;102225.47;6253309;22;20429;-88
2023/02/20 10:15:41;;;;;;;2.63;1.15;;;;;;;17.68;57.48;102202.03;6256544;22;20010;-88
2023/02/20 10:18:31;;;;;;;3.45;1.50;;;;;;;17.70;57.39;102205.53;6252496;22;20007;-88
2023/02/20 10:21:06;;;;;;;2.67;1.35;;;;;;;17.70;57.29;102218.53;6279657;22;20011;-89
2023/02/20 10:23:55;;;;;;;2.10;1.10;;;;;;;17.74;57.24;102204.72;6279159;22;20004;-88
2023/02/20 10:26:43;;;;;;;2.22;1.30;;;;;;;17.79;57.17;102196.94;6252241;22;20421;-89
2023/02/20 10:29:25;;;;;;;2.60;1.30;;;;;;;17.79;56.86;102194.34;6279081;22;20049;-88
2023/02/20 10:32:08;;;;;;;3.53;1.30;;;;;;;17.80;56.97;102194.38;6278945;22;20000;-89
2023/02/20 10:34:39;;;;;;;2.50;1.20;;;;;;;17.84;57.02;102187.50;6252424;22;20023;-90
2023/02/20 10:37:17;;;;;;;3.30;1.20;;;;;;;17.83;56.99;102191.84;6253719;22;20031;-89
2023/02/20 10:39:54;;;;;;;3.40;1.38;;;;;;;17.82;56.92;102220.47;6253938;22;20404;-86
2023/02/20 10:42:37;;;;;;;3.03;1.13;;;;;;;17.82;56.92;102226.53;6253891;22;20004;-89
2023/02/20 10:45:13;;;;;;;3.53;1.38;;;;;;;17.83;56.91;102217.00;6253900;22;20023;-89
2023/02/20 10:47:51;;;;;;;3.30;1.50;;;;;;;17.83;56.69;102204.88;6253927;22;20422;-89
2023/02/20 10:50:28;;;;;;;2.60;1.38;;;;;;;17.85;56.79;102197.06;6253620;22;20340;-88
2023/02/20 10:53:01;;;;;;;4.35;1.55;;;;;;;17.87;56.81;102170.16;6253592;22;20077;-88
2023/02/20 10:55:40;;;;;;;2.63;1.15;;;;;;;17.93;56.54;102171.97;6253465;22;20006;-88
2023/02/20 10:58:14;;;;;;;2.88;1.40;;;;;;;17.92;56.40;102191.09;6280632;22;20010;-88
2023/02/20 11:00:46;;;;;;;2.63;1.40;;;;;;;17.91;56.59;102199.72;6254477;22;19999;-88
2023/02/20 11:03:23;;;;;;;2.08;1.10;;;;;;;17.92;56.74;102185.88;6255496;22;20011;-88
2023/02/20 11:05:56;;;;;;;2.13;1.27;;;;;;;17.95;56.61;102211.94;6261624;22;20000;-86
2023/02/20 11:08:21;;;;;;;3.33;1.33;;;;;;;17.92;56.63;102226.66;6265697;22;19999;-87
2023/02/20 11:10:48;;;;;;;2.47;1.10;;;;;;;17.90;56.36;102237.06;6235641;22;20042;-88
2023/02/20 11:13:21;;;;;;;2.45;1.05;;;;;;;17.88;56.59;102236.16;6254633;22;20004;-89
2023/02/20 11:15:51;;;;;;;2.53;1.13;;;;;;;17.88;56.63;102223.16;6253774;22;20454;-89
2023/02/20 11:18:27;;;;;;;3.03;1.48;;;;;;;17.87;56.72;102216.19;6253834;22;20004;-88
2023/02/20 11:20:55;;;;;;;2.90;1.30;;;;;;;17.90;56.45;102242.28;6280680;22;20074;-88
2023/02/20 11:23:37;;;;;;;2.17;1.17;;;;;;;17.87;56.63;102214.44;6253679;22;20082;-88
2023/02/20 11:26:25;;;;;;;2.88;1.30;;;;;;;17.88;56.60;102202.31;6253380;22;20007;-89
2023/02/20 11:29:09;;;;;;;2.55;1.27;;;;;;;17.90;56.57;102224.03;6253973;22;20388;-88
2023/02/20 11:31:39;;;;;;;1.77;0.90;;;;;;;17.88;56.63;102217.94;6280396;22;20000;-88
2023/02/20 11:34:05;;;;;;;2.90;1.17;;;;;;;17.88;56.50;102223.16;6228954;22;20371;-88
2023/02/20 11:36:38;;;;;;;2.15;1.20;;;;;;;17.89;56.64;102230.09;6203386;22;20090;-88
2023/02/20 11:39:24;;;;;;;2.47;1.30;;;;;;;17.88;56.21;102241.38;6253415;22;20011;-89
2023/02/20 11:42:04;;;;;;;1.67;1.17;;;;;;;17.87;56.54;102234.41;6253186;22;19999;-89
2023/02/20 11:44:29;;;;;;;2.42;1.30;;;;;;;17.85;56.53;102236.97;6256797;22;20008;-88
2023/02/20 11:47:10;;;;;;;3.30;1.55;;;;;;;17.84;56.56;102229.19;6253763;22;20400;-90
2023/02/20 11:49:36;;;;;;;2.35;1.20;;;;;;;17.81;56.50;102230.00;6253194;22;20051;-89
2023/02/20 11:52:18;;;;;;;1.80;0.90;;;;;;;17.80;56.70;102212.59;6227962;22;20039;-88
2023/02/20 11:54:45;;;;;;;2.65;1.30;;;;;;;17.82;56.72;102210.06;6253300;22;20012;-89